Lake Charles Regional Airport
KLCH : now visible

Airfield :











YOU CAN JOIN US ON...

 
LOGIN :

Register | Disclaimer

   EN    FR    IT 

 









Legend :    VFR   Marginal VFR   IFR   Intensive IFR   Very Intensive IFR
Visi :
Ceiling :
>= 8 km
>= 3000ft
5 to 8 km
1000 to 3000 ft
1500m to 5 km
500 to 1000 ft
800 to 1500m
200 to 500 ft
< 800m
< 200 ft
Symbols :   Thunderstorms  Fog  Heavy snow  Heavy precipitations  Wind > 20 kt






- Airport Elevation : 15 ft
- IATA code : LCH


KLCH - Lake Charles Regional

CURRENT METAR :
  • 160953Z AUTO 05014KT 10SM OVC022 17/14 A2986 RMK AO2 PK WND 01029/0911 LTG DSNT NE SLP120 T01720139

EXPIRED METARs :
  • 160927Z AUTO 01010KT 10SM OVC020 18/14 A2988 RMK AO2 PK WND 01029/0911 LTG DSNT N-E T01830144
  • 160906Z AUTO 36014G22KT 10SM VCTS BKN020 OVC043 18/14 A2988 RMK AO2 LTG DSNT NW-NE PRESRR T01830139
  • 160853Z AUTO 35012KT 10SM SCT022 OVC043 19/16 A2986 RMK AO2 LTG DSNT NW-NE PRESRR SLP119 T01890161 55005
  • 160753Z AUTO 06007KT 10SM BKN030 18/16 A2981 RMK AO2 SLP103 T01830156

TAF KLCH
Valid from the 16 at 06:00 until the 17 at 06:00 UTC


160524Z 1606/1706 07010KT P6SM SCT025 BKN120
FM160900 05008KT P6SM OVC012
FM161300 07010KT P6SM VCSH OVC015
FM161800 11010KT P6SM VCSH OVC015
PROB30 1618/1624 VRB15G25KT 2SM TSRA OVC007CB
FM170000 10008KT 5SM -SHRA BR OVC007
KZHU FIR / North America



MET'MAP, your aeronautical weather chart ! - Copyright ORBIFLY December 2007 - Disclaimer

ORBIFLY MET'MAP TEAM :

Programming & Development : Alexandra Zaïnal
Concept & original design : Baudouin d'Aumeries
Assistance for programming : Marc-Olivier Méhu
Technical & hardware support : Manuel Goepfert

Contact : metmap@orbifly.com




SOURCES & CREDITS :

   NOAA       Earth
Advisory